Time;durP1;ratioP1;P1;durP2;ratioP2;P2;SDS_P1;SDS_P2;PMS_P1;PMS_P2;Temp;Humidity;BMP_temperature;BMP_pressure;BME280_temperature;BME280_humidity;BME280_pressure;Samples;Min_cycle;Max_cycle;Signal;HPM_P1;HPM_P2
2021/06/09 00:01:05;;;;;;;34.22;29.75;;;25.90;92.10;;;;;;5053824;28;20479;-82
2021/06/09 00:03:31;;;;;;;33.08;29.13;;;25.90;92.10;;;;;;5055047;28;20135;-82
2021/06/09 00:05:57;;;;;;;35.72;30.88;;;26.00;92.10;;;;;;5070558;28;20459;-82
2021/06/09 00:08:23;;;;;;;36.65;31.50;;;25.90;92.10;;;;;;5069333;28;20029;-82
2021/06/09 00:10:54;;;;;;;38.15;32.95;;;25.90;92.10;;;;;;5055126;28;20489;-82
2021/06/09 00:13:20;;;;;;;38.42;32.30;;;25.90;92.10;;;;;;5053345;28;20039;-82
2021/06/09 00:15:46;;;;;;;39.15;33.20;;;25.90;92.10;;;;;;5054890;28;20064;-82
2021/06/09 00:18:12;;;;;;;39.17;33.15;;;26.00;92.10;;;;;;5053613;28;20053;-82
2021/06/09 00:20:38;;;;;;;38.47;33.63;;;25.90;92.10;;;;;;5055953;28;20136;-82
2021/06/09 00:23:04;;;;;;;37.80;31.77;;;25.90;92.10;;;;;;5056885;28;20075;-82
2021/06/09 00:25:30;;;;;;;40.70;33.70;;;25.90;92.10;;;;;;5056551;28;20060;-82
2021/06/09 00:27:57;;;;;;;37.40;32.28;;;25.90;92.10;;;;;;5057065;28;20052;-80
2021/06/09 00:30:29;;;;;;;41.08;34.67;;;25.90;92.10;;;;;;5056608;28;20032;-80
2021/06/09 00:32:56;;;;;;;40.45;35.63;;;25.90;92.10;;;;;;5074703;28;20081;-81
2021/06/09 00:35:22;;;;;;;41.50;35.55;;;25.90;92.10;;;;;;5039914;28;20471;-82
2021/06/09 00:37:47;;;;;;;41.30;34.97;;;25.90;92.00;;;;;;5039995;28;20040;-81
2021/06/09 00:40:14;;;;;;;41.17;35.20;;;25.90;92.00;;;;;;5056361;28;20028;-82
2021/06/09 00:42:40;;;;;;;41.90;35.47;;;25.90;92.00;;;;;;5056720;28;20036;-81
2021/06/09 00:45:07;;;;;;;44.05;36.95;;;25.90;92.00;;;;;;5074425;28;20115;-81
2021/06/09 00:47:33;;;;;;;41.33;35.45;;;25.90;92.00;;;;;;5056120;28;20031;-81
2021/06/09 00:49:58;;;;;;;41.95;35.63;;;25.90;92.10;;;;;;5058961;28;20425;-81
2021/06/09 00:52:29;;;;;;;40.38;34.83;;;25.90;92.10;;;;;;5056438;28;20146;-82
2021/06/09 00:54:55;;;;;;;43.35;36.75;;;25.90;92.10;;;;;;5074291;28;20070;-81
2021/06/09 00:57:22;;;;;;;38.45;33.65;;;25.90;92.10;;;;;;5039620;28;20028;-82
2021/06/09 00:59:48;;;;;;;40.25;34.20;;;25.90;92.10;;;;;;5074200;28;20481;-81
2021/06/09 01:02:14;;;;;;;40.40;35.22;;;25.90;92.10;;;;;;5056213;28;20029;-81
2021/06/09 01:04:40;;;;;;;38.97;34.42;;;25.90;92.10;;;;;;5039544;28;20116;-81
2021/06/09 01:07:08;;;;;;;40.78;35.13;;;25.90;92.10;;;;;;5074023;28;20103;-81
2021/06/09 01:09:33;;;;;;;41.10;34.58;;;25.90;92.10;;;;;;5073615;28;20024;-82
2021/06/09 01:11:59;;;;;;;40.30;34.67;;;25.90;92.10;;;;;;5039502;28;20132;-82
2021/06/09 01:14:25;;;;;;;41.33;34.67;;;25.90;92.10;;;;;;5055624;28;20111;-82
2021/06/09 01:16:52;;;;;;;39.97;35.03;;;25.90;92.10;;;;;;5073601;28;20474;-82
2021/06/09 01:19:19;;;;;;;40.35;34.88;;;25.90;92.10;;;;;;5055457;28;20035;-82
2021/06/09 01:21:46;;;;;;;38.13;32.80;;;25.90;92.20;;;;;;5055371;28;20182;-83
2021/06/09 01:24:12;;;;;;;38.45;33.40;;;25.80;92.00;;;;;;5039117;28;20036;-83
2021/06/09 01:26:39;;;;;;;38.78;32.95;;;25.80;92.00;;;;;;5073374;28;20077;-82
2021/06/09 01:29:06;;;;;;;40.03;33.90;;;25.90;92.10;;;;;;5055752;28;20027;-83
2021/06/09 01:31:32;;;;;;;37.40;32.88;;;25.80;92.00;;;;;;5054594;28;20471;-83
2021/06/09 01:34:05;;;;;;;37.63;32.63;;;25.90;92.00;;;;;;5073471;28;20031;-83
2021/06/09 01:36:39;;;;;;;34.38;30.55;;;25.90;92.00;;;;;;5055250;28;20024;-82
2021/06/09 01:39:14;;;;;;;38.35;32.25;;;25.80;92.00;;;;;;5073422;28;20029;-82
2021/06/09 01:41:49;;;;;;;36.42;31.35;;;25.80;92.00;;;;;;5073134;28;20047;-81
2021/06/09 01:44:15;;;;;;;37.33;32.05;;;25.80;92.00;;;;;;5055438;28;20497;-83
2021/06/09 01:46:42;;;;;;;37.28;31.77;;;25.90;92.30;;;;;;5055070;28;20020;-82
2021/06/09 01:49:10;;;;;;;40.10;32.33;;;25.80;92.00;;;;;;5073371;28;20029;-82
2021/06/09 01:51:37;;;;;;;37.20;32.17;;;25.80;92.00;;;;;;5072871;28;20036;-82
2021/06/09 01:54:04;;;;;;;38.85;32.80;;;25.80;92.00;;;;;;5073228;28;20032;-81
2021/06/09 01:56:30;;;;;;;36.30;31.55;;;25.80;92.00;;;;;;5072947;28;20029;-81
2021/06/09 01:58:56;;;;;;;36.17;31.83;;;25.80;92.00;;;;;;5055301;28;20036;-81
2021/06/09 02:01:22;;;;;;;38.42;32.63;;;25.80;92.00;;;;;;5054878;28;20047;-82
2021/06/09 02:03:48;;;;;;;37.35;31.73;;;25.80;92.00;;;;;;5039065;28;20372;-81
2021/06/09 02:06:14;;;;;;;35.35;31.05;;;25.80;91.90;;;;;;5056225;28;20029;-82
2021/06/09 02:08:40;;;;;;;36.35;31.02;;;25.80;91.90;;;;;;5039204;28;20032;-81
2021/06/09 02:11:06;;;;;;;39.22;32.42;;;25.80;91.90;;;;;;5056166;28;20028;-81
2021/06/09 02:13:32;;;;;;;36.50;31.08;;;25.80;91.90;;;;;;5055100;28;20040;-82
2021/06/09 02:16:00;;;;;;;36.33;32.03;;;25.80;91.90;;;;;;5073403;28;20048;-81
2021/06/09 02:18:26;;;;;;;36.17;31.25;;;25.80;91.90;;;;;;5054566;28;20032;-81
2021/06/09 02:20:56;;;;;;;35.85;31.85;;;25.80;92.20;;;;;;5054674;28;20033;-82
2021/06/09 02:23:35;;;;;;;36.38;31.40;;;25.80;91.90;;;;;;5055211;28;20070;-83
2021/06/09 02:26:01;;;;;;;35.85;31.17;;;25.80;91.90;;;;;;5056314;28;20028;-81
2021/06/09 02:28:30;;;;;;;36.53;31.17;;;25.80;91.90;;;;;;5073638;28;20024;-82
2021/06/09 02:30:56;;;;;;;34.30;30.52;;;25.80;91.90;;;;;;5072819;28;20029;-82
2021/06/09 02:33:24;;;;;;;35.05;30.83;;;25.80;91.90;;;;;;5058241;28;20028;-81
2021/06/09 02:35:52;;;;;;;36.05;30.95;;;25.80;91.90;;;;;;5058869;28;20390;-81
2021/06/09 02:38:18;;;;;;;36.33;30.10;;;25.80;91.90;;;;;;5058895;28;20021;-81
2021/06/09 02:40:48;;;;;;;33.33;28.70;;;25.80;91.90;;;;;;5076118;28;20032;-81
2021/06/09 02:43:15;;;;;;;35.63;31.73;;;25.80;91.90;;;;;;5076911;28;20024;-81
2021/06/09 02:45:46;;;;;;;34.03;29.67;;;25.80;91.90;;;;;;5058174;28;20050;-81
2021/06/09 02:48:15;;;;;;;34.03;30.27;;;25.70;91.80;;;;;;5077135;28;20028;-81
2021/06/09 02:50:42;;;;;;;33.38;28.55;;;25.80;91.90;;;;;;5075838;28;20028;-82
2021/06/09 02:53:16;;;;;;;32.85;28.98;;;25.80;91.90;;;;;;5058632;28;20078;-82
2021/06/09 02:56:20;;;;;;;29.90;26.63;;;25.80;91.80;;;;;;5058226;28;20028;-82
2021/06/09 02:58:58;;;;;;;31.83;28.33;;;25.70;91.80;;;;;;5057739;28;20025;-82
2021/06/09 03:01:38;;;;;;;32.03;28.63;;;25.70;91.80;;;;;;5058500;28;20021;-82
2021/06/09 03:04:12;;;;;;;30.92;27.25;;;25.80;91.80;;;;;;5058689;28;20037;-82
2021/06/09 03:07:10;;;;;;;30.23;26.00;;;25.80;91.80;;;;;;5058028;28;20025;-82
2021/06/09 03:09:55;;;;;;;29.30;26.15;;;25.70;91.80;;;;;;5075675;28;20047;-81
2021/06/09 03:12:37;;;;;;;30.88;27.33;;;25.70;91.80;;;;;;5076443;28;20033;-82
2021/06/09 03:15:10;;;;;;;31.27;26.48;;;25.70;91.80;;;;;;5058309;28;20035;-82
2021/06/09 03:17:38;;;;;;;28.63;25.35;;;25.70;91.80;;;;;;5075461;28;20428;-82
2021/06/09 03:20:28;;;;;;;28.42;25.30;;;25.70;91.70;;;;;;5058034;28;20035;-82
2021/06/09 03:23:11;;;;;;;28.45;25.10;;;25.70;91.80;;;;;;5057813;28;20048;-82
2021/06/09 03:25:50;;;;;;;28.67;24.38;;;25.70;91.80;;;;;;5057579;28;20031;-82
2021/06/09 03:28:21;;;;;;;27.33;24.10;;;25.70;91.70;;;;;;5076300;28;20032;-82
2021/06/09 03:31:00;;;;;;;27.60;23.33;;;25.70;91.70;;;;;;5075445;28;20057;-82
2021/06/09 03:33:32;;;;;;;27.20;22.75;;;25.70;91.70;;;;;;5058101;28;20056;-81
2021/06/09 03:36:09;;;;;;;26.02;22.65;;;25.70;91.80;;;;;;5076097;28;20020;-82
2021/06/09 03:38:43;;;;;;;27.10;22.00;;;25.70;91.70;;;;;;5075689;28;20482;-82
2021/06/09 03:41:12;;;;;;;25.85;23.05;;;25.70;91.70;;;;;;5075925;28;20033;-82
2021/06/09 03:43:42;;;;;;;24.77;21.80;;;25.70;91.70;;;;;;5074946;28;20021;-82
2021/06/09 03:46:08;;;;;;;25.02;21.88;;;25.70;91.70;;;;;;5057367;28;20052;-82
2021/06/09 03:48:39;;;;;;;24.60;21.85;;;25.70;91.70;;;;;;5057383;28;20086;-82
2021/06/09 03:51:05;;;;;;;24.40;21.23;;;25.70;91.70;;;;;;5057461;28;20466;-82
2021/06/09 03:53:33;;;;;;;23.83;20.30;;;25.70;91.70;;;;;;5074824;28;20413;-83
2021/06/09 03:56:03;;;;;;;25.35;20.80;;;25.70;91.70;;;;;;5075654;28;20110;-82
2021/06/09 03:58:30;;;;;;;22.10;19.65;;;25.70;91.70;;;;;;5075407;28;20033;-82
2021/06/09 04:00:56;;;;;;;22.40;19.50;;;25.70;91.70;;;;;;5075119;28;20078;-82
2021/06/09 04:03:23;;;;;;;22.40;19.77;;;25.70;91.70;;;;;;5057950;28;20053;-81
2021/06/09 04:05:52;;;;;;;20.48;18.30;;;25.70;91.70;;;;;;5058594;28;20034;-82
2021/06/09 04:08:20;;;;;;;22.33;19.23;;;25.70;91.70;;;;;;5075125;28;20070;-82
2021/06/09 04:10:47;;;;;;;23.77;19.58;;;25.70;91.70;;;;;;5040123;28;20324;-82
2021/06/09 04:13:16;;;;;;;19.77;17.73;;;25.70;91.70;;;;;;5057086;28;20462;-81
2021/06/09 04:15:43;;;;;;;20.48;18.10;;;25.70;91.70;;;;;;5073403;28;20524;-82
2021/06/09 04:18:09;;;;;;;19.67;17.58;;;25.70;91.70;;;;;;5074970;28;20025;-81
2021/06/09 04:20:36;;;;;;;20.48;17.65;;;25.70;91.70;;;;;;5023478;28;20041;-82
2021/06/09 04:23:02;;;;;;;18.08;16.17;;;25.70;91.70;;;;;;5074907;28;20053;-84
2021/06/09 04:25:28;;;;;;;18.42;16.40;;;25.70;91.70;;;;;;5073583;28;20490;-81
2021/06/09 04:27:54;;;;;;;17.50;15.70;;;25.70;91.70;;;;;;5039803;28;20064;-82
2021/06/09 04:30:22;;;;;;;16.90;14.93;;;25.70;91.70;;;;;;5075012;28;20029;-81
2021/06/09 04:33:00;;;;;;;16.67;14.50;;;25.70;91.70;;;;;;5072989;28;20052;-82
2021/06/09 04:35:29;;;;;;;16.65;14.85;;;25.70;91.70;;;;;;5056522;28;20466;-82
2021/06/09 04:37:54;;;;;;;16.42;14.20;;;25.70;91.70;;;;;;5056273;28;20051;-82
2021/06/09 04:40:23;;;;;;;16.52;14.38;;;25.70;91.70;;;;;;5074698;28;20382;-82
2021/06/09 04:42:51;;;;;;;14.40;12.90;;;25.70;91.70;;;;;;5074032;28;20065;-82
2021/06/09 04:45:18;;;;;;;14.00;12.60;;;25.70;91.70;;;;;;5074181;28;20543;-82
2021/06/09 04:47:46;;;;;;;14.10;12.60;;;25.70;91.70;;;;;;5056185;28;20068;-82
2021/06/09 04:50:17;;;;;;;15.43;13.10;;;25.70;91.60;;;;;;5056535;28;20552;-82
2021/06/09 04:52:43;;;;;;;12.88;11.45;;;25.70;91.60;;;;;;5055979;28;20028;-82
2021/06/09 04:55:09;;;;;;;13.30;11.60;;;25.70;91.60;;;;;;5073660;28;20033;-82
2021/06/09 04:57:36;;;;;;;13.68;11.63;;;25.70;91.60;;;;;;5074160;28;20025;-81
2021/06/09 05:00:05;;;;;;;11.70;10.23;;;25.70;91.60;;;;;;5074027;28;20115;-82
2021/06/09 05:02:32;;;;;;;10.68;9.50;;;25.70;91.60;;;;;;5074300;28;20020;-82
2021/06/09 05:04:58;;;;;;;11.18;10.00;;;25.70;91.60;;;;;;5073748;28;20024;-82
2021/06/09 05:07:23;;;;;;;11.52;9.68;;;25.80;91.60;;;;;;5073882;28;20036;-81
2021/06/09 05:09:49;;;;;;;10.48;9.38;;;25.80;91.60;;;;;;5039030;28;20428;-82
2021/06/09 05:12:24;;;;;;;9.27;8.23;;;25.80;91.50;;;;;;5072605;28;20029;-82
2021/06/09 05:14:53;;;;;;;9.80;8.80;;;25.80;91.50;;;;;;5055712;28;20028;-82
2021/06/09 05:17:26;;;;;;;10.30;9.15;;;25.80;91.50;;;;;;5073463;28;20056;-81
2021/06/09 05:19:54;;;;;;;9.75;8.65;;;25.80;91.50;;;;;;5073559;28;20036;-82
2021/06/09 05:22:29;;;;;;;9.82;8.77;;;25.80;91.50;;;;;;5051899;28;20049;-81
2021/06/09 05:24:56;;;;;;;9.25;8.35;;;25.80;91.50;;;;;;5053550;28;20056;-81
2021/06/09 05:27:23;;;;;;;8.80;7.90;;;25.80;91.50;;;;;;5052769;28;20471;-82
2021/06/09 05:29:51;;;;;;;8.93;8.02;;;25.80;91.50;;;;;;5068632;28;20390;-81
2021/06/09 05:32:18;;;;;;;10.13;8.23;;;25.80;91.50;;;;;;5069279;28;20025;-81
2021/06/09 05:34:44;;;;;;;9.45;8.35;;;25.80;91.40;;;;;;5052825;28;20028;-82
2021/06/09 05:37:12;;;;;;;9.63;8.25;;;25.80;91.40;;;;;;5053534;28;20029;-81
2021/06/09 05:39:38;;;;;;;8.93;8.02;;;25.90;91.50;;;;;;5035982;28;20029;-81
2021/06/09 05:42:09;;;;;;;8.77;7.75;;;25.80;91.40;;;;;;5052130;28;20037;-81
2021/06/09 05:44:36;;;;;;;8.43;7.53;;;25.90;91.50;;;;;;5035640;28;20029;-81
2021/06/09 05:47:03;;;;;;;8.23;7.43;;;25.90;91.50;;;;;;5051868;28;20180;-81
2021/06/09 05:49:29;;;;;;;8.52;7.30;;;25.90;91.50;;;;;;5051698;28;20471;-81
2021/06/09 05:51:55;;;;;;;7.57;6.78;;;25.90;91.50;;;;;;5035262;28;20524;-82
2021/06/09 05:54:21;;;;;;;7.57;6.50;;;25.90;91.50;;;;;;5051897;28;20475;-81
2021/06/09 05:56:47;;;;;;;7.00;6.20;;;25.90;91.40;;;;;;5051547;28;20045;-81
2021/06/09 05:59:14;;;;;;;6.78;6.07;;;25.90;91.40;;;;;;5068694;28;20090;-81
2021/06/09 06:01:40;;;;;;;6.65;5.95;;;25.90;91.50;;;;;;5052933;28;20491;-83
2021/06/09 06:04:10;;;;;;;5.88;5.28;;;25.90;91.40;;;;;;5052855;28;20029;-82
2021/06/09 06:06:36;;;;;;;5.63;5.03;;;25.90;91.40;;;;;;5051111;28;20171;-82
2021/06/09 06:09:03;;;;;;;5.78;5.18;;;25.90;91.40;;;;;;5034344;28;20034;-81
2021/06/09 06:11:29;;;;;;;6.10;5.50;;;25.90;91.40;;;;;;5051556;28;20056;-83
2021/06/09 06:13:55;;;;;;;5.40;4.80;;;25.90;91.40;;;;;;5051469;28;20039;-81
2021/06/09 06:16:21;;;;;;;6.05;5.45;;;26.00;91.50;;;;;;5052623;28;20386;-82
2021/06/09 06:18:49;;;;;;;5.45;4.95;;;26.00;91.50;;;;;;5051985;28;20231;-82
2021/06/09 06:21:17;;;;;;;5.35;4.85;;;26.00;91.50;;;;;;5056000;28;20057;-82
2021/06/09 06:23:43;;;;;;;4.93;4.50;;;26.00;91.50;;;;;;5072979;28;20138;-81
2021/06/09 06:26:11;;;;;;;4.47;4.07;;;26.00;91.50;;;;;;5055025;28;20040;-82
2021/06/09 06:28:39;;;;;;;4.93;4.43;;;26.00;91.50;;;;;;5072920;28;20032;-82
2021/06/09 06:31:10;;;;;;;5.65;4.75;;;26.00;91.50;;;;;;5072545;28;20035;-81
2021/06/09 06:33:37;;;;;;;4.43;4.03;;;26.00;91.50;;;;;;5072889;28;20029;-81
2021/06/09 06:36:04;;;;;;;4.43;4.03;;;26.00;91.50;;;;;;5054791;28;20060;-81
2021/06/09 06:38:30;;;;;;;4.55;4.15;;;26.00;91.50;;;;;;5072531;28;20107;-82
2021/06/09 06:40:56;;;;;;;4.35;3.95;;;26.00;91.50;;;;;;5071280;28;20454;-82
2021/06/09 06:43:22;;;;;;;4.30;3.70;;;26.00;91.50;;;;;;5055266;28;20033;-82
2021/06/09 06:45:47;;;;;;;3.67;3.38;;;26.00;91.60;;;;;;5054580;28;20024;-83
2021/06/09 06:48:14;;;;;;;3.45;3.15;;;26.00;91.60;;;;;;5055119;28;20040;-82
2021/06/09 06:50:42;;;;;;;3.28;2.92;;;26.10;91.60;;;;;;5074274;28;20099;-81
2021/06/09 06:53:08;;;;;;;3.08;2.80;;;26.10;91.70;;;;;;5072704;28;20035;-82
2021/06/09 06:55:34;;;;;;;3.30;3.00;;;26.10;91.70;;;;;;5038092;28;20028;-82
2021/06/09 06:58:00;;;;;;;3.20;2.72;;;26.10;91.70;;;;;;5054703;28;20466;-81
2021/06/09 07:00:26;;;;;;;2.85;2.65;;;26.10;91.70;;;;;;5037798;28;20040;-81
2021/06/09 07:02:54;;;;;;;2.90;2.60;;;26.10;91.70;;;;;;5070941;28;20032;-82
2021/06/09 07:05:22;;;;;;;2.72;2.53;;;26.10;91.80;;;;;;5071204;28;20478;-82
2021/06/09 07:07:50;;;;;;;2.80;2.55;;;26.10;91.70;;;;;;5054275;28;20128;-84
2021/06/09 07:10:17;;;;;;;3.28;2.97;;;26.10;91.80;;;;;;5072738;28;20042;-82
2021/06/09 07:12:45;;;;;;;2.75;2.47;;;26.10;91.80;;;;;;5071152;28;20036;-82
2021/06/09 07:15:21;;;;;;;2.33;2.13;;;26.10;91.80;;;;;;5071302;28;20103;-82
2021/06/09 07:17:56;;;;;;;2.85;2.65;;;26.20;91.80;;;;;;5072324;28;20026;-81
2021/06/09 07:20:28;;;;;;;2.50;2.30;;;26.20;91.80;;;;;;5057986;28;20463;-83
2021/06/09 07:22:55;;;;;;;2.80;2.50;;;26.20;91.80;;;;;;5075903;28;20080;-83
2021/06/09 07:25:23;;;;;;;2.63;2.42;;;26.20;91.80;;;;;;5074680;28;20028;-82
2021/06/09 07:27:52;;;;;;;2.88;2.45;;;26.20;91.80;;;;;;5075829;28;20031;-82
2021/06/09 07:30:20;;;;;;;2.60;2.40;;;26.20;91.80;;;;;;5057428;28;20037;-82
2021/06/09 07:32:47;;;;;;;2.55;2.35;;;26.20;91.80;;;;;;5041212;28;20078;-82
2021/06/09 07:35:15;;;;;;;2.50;2.30;;;26.20;91.80;;;;;;5040954;28;20032;-82
2021/06/09 07:37:46;;;;;;;2.88;2.60;;;26.20;91.80;;;;;;5075682;28;20033;-83
2021/06/09 07:40:35;;;;;;;2.65;2.42;;;26.20;91.80;;;;;;5075842;28;20044;-82
2021/06/09 07:43:08;;;;;;;2.70;2.50;;;26.30;91.80;;;;;;5075309;28;20024;-83
2021/06/09 07:45:35;;;;;;;2.45;2.20;;;26.30;91.90;;;;;;5057604;28;20113;-83
2021/06/09 07:48:02;;;;;;;2.70;2.50;;;26.30;91.80;;;;;;5057233;28;20029;-82
2021/06/09 07:50:35;;;;;;;2.38;2.17;;;26.30;91.80;;;;;;5075837;28;20050;-82
2021/06/09 07:53:09;;;;;;;2.30;2.10;;;26.30;91.90;;;;;;5056595;28;20020;-82
2021/06/09 07:55:36;;;;;;;2.55;2.28;;;26.30;91.80;;;;;;5075729;28;20032;-82
2021/06/09 07:58:04;;;;;;;3.08;2.75;;;26.30;91.80;;;;;;5024355;28;20056;-82
2021/06/09 08:00:30;;;;;;;2.90;2.60;;;26.30;91.80;;;;;;5057220;28;20028;-82
2021/06/09 08:02:56;;;;;;;2.63;2.42;;;26.30;91.80;;;;;;5056951;28;20386;-83
2021/06/09 08:05:25;;;;;;;2.65;2.40;;;26.30;91.80;;;;;;5040753;28;20025;-83
2021/06/09 08:07:51;;;;;;;2.95;2.65;;;26.30;91.80;;;;;;5057251;28;20489;-82
2021/06/09 08:10:17;;;;;;;2.70;2.50;;;26.30;91.80;;;;;;5056885;28;20429;-82
2021/06/09 08:12:43;;;;;;;3.17;2.72;;;26.30;91.80;;;;;;5040607;28;20029;-82
2021/06/09 08:15:11;;;;;;;3.25;2.95;;;26.30;91.80;;;;;;5057008;28;20079;-81
2021/06/09 08:17:39;;;;;;;3.25;2.95;;;26.30;91.80;;;;;;5074793;28;20026;-82
2021/06/09 08:20:07;;;;;;;3.03;2.72;;;26.40;91.80;;;;;;5040529;28;20056;-81
2021/06/09 08:22:33;;;;;;;3.65;3.00;;;26.40;91.80;;;;;;5056541;28;20506;-82
2021/06/09 08:24:58;;;;;;;3.40;3.10;;;26.40;91.80;;;;;;5056198;28;20107;-82
2021/06/09 08:27:24;;;;;;;3.40;2.90;;;26.40;91.80;;;;;;5038527;28;20034;-83
2021/06/09 08:29:49;;;;;;;3.03;2.72;;;26.40;91.80;;;;;;5055842;28;20032;-83
2021/06/09 08:32:15;;;;;;;2.83;2.63;;;26.40;91.80;;;;;;5056920;28;20040;-83
2021/06/09 08:34:41;;;;;;;3.55;3.17;;;26.40;91.80;;;;;;5057093;28;20568;-82
2021/06/09 08:37:06;;;;;;;3.70;3.22;;;26.40;91.80;;;;;;5023337;28;20119;-82
2021/06/09 08:39:32;;;;;;;3.38;2.90;;;26.40;91.80;;;;;;5023399;28;20112;-82
2021/06/09 08:42:01;;;;;;;3.03;2.72;;;26.40;91.70;;;;;;5039805;28;20028;-84
2021/06/09 08:44:28;;;;;;;3.65;3.25;;;26.40;91.70;;;;;;5056192;28;20078;-82
2021/06/09 08:46:57;;;;;;;3.47;3.17;;;26.40;91.70;;;;;;5056890;28;20032;-82
2021/06/09 08:49:24;;;;;;;3.40;3.10;;;26.40;91.70;;;;;;5039428;28;20025;-83
2021/06/09 08:51:53;;;;;;;3.60;3.10;;;26.40;91.70;;;;;;5073318;28;20030;-82
2021/06/09 08:54:19;;;;;;;4.55;3.85;;;26.50;91.70;;;;;;5073677;28;20024;-82
2021/06/09 08:56:46;;;;;;;4.00;3.50;;;26.50;91.70;;;;;;5039937;28;20039;-82
2021/06/09 08:59:13;;;;;;;3.70;3.30;;;26.50;91.70;;;;;;5056241;28;20027;-84
2021/06/09 09:01:38;;;;;;;3.80;3.45;;;26.50;91.70;;;;;;5073878;28;20036;-83
2021/06/09 09:04:04;;;;;;;4.22;3.53;;;26.50;91.70;;;;;;5056006;28;20107;-83
2021/06/09 09:06:31;;;;;;;4.15;3.72;;;26.50;91.70;;;;;;5074074;28;20356;-82
2021/06/09 09:08:57;;;;;;;4.03;3.55;;;26.50;91.90;;;;;;5056082;28;20021;-82
2021/06/09 09:11:23;;;;;;;3.95;3.50;;;26.50;91.70;;;;;;5055578;28;20531;-81
2021/06/09 09:13:50;;;;;;;4.00;3.60;;;26.50;91.70;;;;;;5056108;28;20028;-82
2021/06/09 09:16:16;;;;;;;4.35;3.95;;;26.50;91.70;;;;;;5038798;28;20040;-82
2021/06/09 09:19:15;;;;;;;4.03;3.63;;;26.50;91.80;;;;;;5055913;28;20025;-82
2021/06/09 09:21:41;;;;;;;3.80;3.38;;;26.50;91.90;;;;;;5071778;28;20052;-82
2021/06/09 09:24:09;;;;;;;3.80;3.38;;;26.50;91.90;;;;;;5055552;28;20025;-83
2021/06/09 09:26:36;;;;;;;4.03;3.63;;;26.50;92.00;;;;;;5055916;28;20428;-82
2021/06/09 09:29:20;;;;;;;3.65;3.17;;;26.50;92.00;;;;;;5055775;28;20030;-84
2021/06/09 09:31:54;;;;;;;3.90;3.50;;;26.50;92.10;;;;;;5073826;28;20138;-83
2021/06/09 09:34:27;;;;;;;3.42;3.13;;;26.50;92.10;;;;;;5055317;28;20025;-83
2021/06/09 09:37:24;;;;;;;3.55;3.15;;;26.50;92.20;;;;;;5055449;28;20063;-83
2021/06/09 09:40:16;;;;;;;4.32;3.92;;;26.50;92.20;;;;;;5072169;28;20040;-82
2021/06/09 09:42:44;;;;;;;4.70;3.97;;;26.50;92.20;;;;;;5054143;28;20083;-82
2021/06/09 09:45:27;;;;;;;4.22;3.83;;;26.50;92.20;;;;;;5054984;28;20500;-82
2021/06/09 09:48:19;;;;;;;4.72;4.07;;;26.50;92.20;;;;;;5073304;28;20040;-82
2021/06/09 09:50:50;;;;;;;4.30;3.90;;;26.50;92.10;;;;;;5034990;28;20051;-82
2021/06/09 09:53:21;;;;;;;4.47;3.97;;;26.50;92.40;;;;;;5054761;28;20029;-82
2021/06/09 09:56:25;;;;;;;4.78;3.80;;;26.50;92.20;;;;;;5073570;28;20033;-82
2021/06/09 09:59:05;;;;;;;3.65;3.35;;;26.50;92.10;;;;;;5033667;28;20039;-82
2021/06/09 10:01:34;;;;;;;5.35;4.10;;;26.50;92.10;;;;;;5073243;28;20024;-82
2021/06/09 10:04:02;;;;;;;4.00;3.60;;;26.50;92.10;;;;;;5038751;28;20035;-82
2021/06/09 10:06:40;;;;;;;3.30;3.00;;;26.50;92.10;;;;;;5072006;28;20032;-85
2021/06/09 10:09:10;;;;;;;3.85;3.15;;;26.50;92.10;;;;;;5072737;28;20031;-84
2021/06/09 10:11:39;;;;;;;3.83;3.30;;;26.50;92.00;;;;;;5072631;28;20029;-82
2021/06/09 10:14:16;;;;;;;3.65;3.13;;;26.50;92.00;;;;;;5072615;28;20025;-82
2021/06/09 10:16:43;;;;;;;3.85;3.28;;;26.50;92.00;;;;;;5038657;28;20024;-82
2021/06/09 10:19:11;;;;;;;3.65;3.10;;;26.50;92.00;;;;;;5055001;28;20029;-83
2021/06/09 10:21:52;;;;;;;3.78;3.20;;;26.50;92.30;;;;;;5054438;28;20185;-82
2021/06/09 10:24:18;;;;;;;3.30;3.00;;;26.50;92.10;;;;;;5072343;28;20043;-82
2021/06/09 10:26:51;;;;;;;3.70;3.22;;;26.50;92.10;;;;;;5072888;28;20467;-82
2021/06/09 10:29:19;;;;;;;3.40;3.10;;;26.50;92.10;;;;;;5038927;28;20060;-83
2021/06/09 10:31:54;;;;;;;3.35;3.05;;;26.50;92.10;;;;;;5054723;28;20445;-83
2021/06/09 10:34:26;;;;;;;3.20;2.90;;;26.50;92.20;;;;;;5054250;28;20048;-83
2021/06/09 10:36:54;;;;;;;3.70;3.35;;;26.50;92.30;;;;;;5054630;28;20078;-82
2021/06/09 10:39:22;;;;;;;3.13;2.75;;;26.50;92.30;;;;;;5072197;28;20466;-83
2021/06/09 10:41:51;;;;;;;2.88;2.58;;;26.50;92.30;;;;;;5072674;28;20028;-83
2021/06/09 10:44:21;;;;;;;2.95;2.65;;;26.50;92.40;;;;;;5072211;28;20052;-83
2021/06/09 10:46:49;;;;;;;2.85;2.60;;;26.50;92.40;;;;;;5054711;28;20020;-83
2021/06/09 10:49:20;;;;;;;3.65;2.95;;;26.50;92.50;;;;;;5054421;28;20035;-84
2021/06/09 10:51:49;;;;;;;3.22;2.67;;;26.60;92.80;;;;;;5072159;28;20024;-83
2021/06/09 10:54:16;;;;;;;2.63;2.40;;;26.50;92.50;;;;;;5075104;28;20016;-84
2021/06/09 10:56:47;;;;;;;2.65;2.40;;;26.50;92.60;;;;;;5057281;28;20036;-83
2021/06/09 10:59:15;;;;;;;2.70;2.33;;;26.50;92.60;;;;;;5058485;28;20467;-83
2021/06/09 11:01:42;;;;;;;2.85;2.50;;;26.50;92.60;;;;;;5076236;28;20074;-83
2021/06/09 11:04:08;;;;;;;2.45;2.25;;;26.50;92.80;;;;;;5057577;28;20028;-83
2021/06/09 11:06:55;;;;;;;2.83;2.50;;;26.50;92.60;;;;;;5041499;28;20119;-83
2021/06/09 11:09:24;;;;;;;2.58;2.20;;;26.60;92.70;;;;;;5058078;28;20028;-82
2021/06/09 11:12:11;;;;;;;2.53;2.33;;;26.50;92.70;;;;;;5058246;28;20359;-82
2021/06/09 11:14:52;;;;;;;2.42;2.20;;;26.60;92.70;;;;;;5075710;28;20035;-82
2021/06/09 11:17:39;;;;;;;2.35;2.10;;;26.50;92.70;;;;;;5057833;28;20021;-83
2021/06/09 11:20:19;;;;;;;2.97;2.38;;;26.50;92.70;;;;;;5058051;28;20036;-83
2021/06/09 11:22:50;;;;;;;2.03;1.83;;;26.60;92.80;;;;;;5075754;28;20097;-82
2021/06/09 11:25:17;;;;;;;2.25;2.05;;;26.50;92.80;;;;;;5057603;28;20032;-83
2021/06/09 11:28:00;;;;;;;2.20;2.00;;;26.50;92.90;;;;;;5057992;28;20048;-82
2021/06/09 11:30:26;;;;;;;2.73;2.47;;;26.50;92.90;;;;;;5075510;28;20111;-82
2021/06/09 11:33:01;;;;;;;2.30;1.90;;;26.50;92.90;;;;;;5075528;28;20471;-82
2021/06/09 11:35:47;;;;;;;2.10;1.90;;;26.50;92.90;;;;;;5057434;28;20025;-82
2021/06/09 11:38:12;;;;;;;2.30;2.10;;;26.60;93.00;;;;;;5057997;28;20028;-83
2021/06/09 11:40:53;;;;;;;2.30;2.10;;;26.60;93.00;;;;;;5057275;28;20601;-83
2021/06/09 11:43:26;;;;;;;2.17;1.98;;;26.60;93.00;;;;;;5057309;28;20513;-82
2021/06/09 11:46:07;;;;;;;2.15;1.95;;;26.60;93.10;;;;;;5075582;28;20082;-82
2021/06/09 11:48:35;;;;;;;2.00;1.80;;;26.60;93.10;;;;;;5057333;28;20032;-81
2021/06/09 11:51:22;;;;;;;2.13;1.92;;;26.60;93.10;;;;;;5075216;28;20098;-82
2021/06/09 11:53:50;;;;;;;2.05;1.85;;;26.60;93.10;;;;;;5044531;28;20416;-83
2021/06/09 11:56:28;;;;;;;1.70;1.60;;;26.60;93.20;;;;;;5075454;28;20085;-84
2021/06/09 11:58:57;;;;;;;1.80;1.70;;;26.60;93.20;;;;;;5075707;28;20057;-83
2021/06/09 12:01:25;;;;;;;1.88;1.60;;;26.60;93.30;;;;;;5057037;28;20047;-83
2021/06/09 12:04:22;;;;;;;1.90;1.70;;;26.60;93.30;;;;;;5075285;28;20327;-82
2021/06/09 12:06:56;;;;;;;2.05;1.60;;;26.60;93.30;;;;;;5075367;28;20463;-83
2021/06/09 12:09:22;;;;;;;1.70;1.60;;;26.60;93.30;;;;;;5075121;28;20020;-83
2021/06/09 12:11:54;;;;;;;2.13;1.92;;;26.60;93.30;;;;;;5059179;28;20062;-82
2021/06/09 12:14:25;;;;;;;2.00;1.55;;;26.60;93.30;;;;;;5058175;28;20055;-83
2021/06/09 12:16:55;;;;;;;1.88;1.73;;;26.60;93.30;;;;;;5057973;28;20025;-82
2021/06/09 12:19:25;;;;;;;1.85;1.58;;;26.60;93.30;;;;;;5074791;28;20020;-84
2021/06/09 12:21:55;;;;;;;1.67;1.58;;;26.60;93.40;;;;;;5074575;28;20070;-82
2021/06/09 12:24:21;;;;;;;1.40;1.30;;;26.60;93.40;;;;;;5056665;28;20024;-83
2021/06/09 12:26:52;;;;;;;1.40;1.30;;;26.60;93.40;;;;;;5074535;28;20024;-83
2021/06/09 12:29:23;;;;;;;1.73;1.55;;;26.60;93.40;;;;;;5074717;28;20028;-83
2021/06/09 12:31:49;;;;;;;1.55;1.38;;;26.60;93.40;;;;;;5056620;28;20033;-83
2021/06/09 12:34:29;;;;;;;1.63;1.52;;;26.60;93.40;;;;;;5023378;28;20066;-83
2021/06/09 12:37:02;;;;;;;1.75;1.40;;;26.60;93.30;;;;;;5074302;28;20123;-82
2021/06/09 12:39:28;;;;;;;1.92;1.70;;;26.60;93.40;;;;;;5056536;28;20356;-83
2021/06/09 12:41:54;;;;;;;1.30;1.20;;;26.60;93.50;;;;;;5073963;28;20037;-83
2021/06/09 12:44:20;;;;;;;1.83;1.35;;;26.60;93.50;;;;;;5039894;28;20036;-85
2021/06/09 12:46:51;;;;;;;1.70;1.60;;;26.60;93.50;;;;;;5056239;28;20021;-83
2021/06/09 12:49:22;;;;;;;1.48;1.38;;;26.60;93.50;;;;;;5039788;28;20029;-82
2021/06/09 12:52:00;;;;;;;1.50;1.38;;;26.60;93.40;;;;;;5056304;28;20056;-83